sensor_id;sensor_type;location;lat;lon;timestamp;pressure;altitude;pressure_sealevel;temperature;humidity
23446;BME280;11895;48.738;9.320;2022-12-13T00:01:58;98203.47;;;-3.36;100.00
23446;BME280;11895;48.738;9.320;2022-12-13T00:04:26;98196.44;;;-3.27;100.00
23446;BME280;11895;48.738;9.320;2022-12-13T00:06:54;98193.81;;;-3.35;100.00
23446;BME280;11895;48.738;9.320;2022-12-13T00:09:22;98193.84;;;-3.43;100.00
23446;BME280;11895;48.738;9.320;2022-12-13T00:11:50;98200.84;;;-3.40;100.00
23446;BME280;11895;48.738;9.320;2022-12-13T00:14:18;98190.28;;;-3.34;100.00
23446;BME280;11895;48.738;9.320;2022-12-13T00:16:47;98185.94;;;-3.43;100.00
23446;BME280;11895;48.738;9.320;2022-12-13T00:19:16;98192.06;;;-3.38;100.00
23446;BME280;11895;48.738;9.320;2022-12-13T00:21:44;98189.44;;;-3.44;100.00
23446;BME280;11895;48.738;9.320;2022-12-13T00:24:12;98179.78;;;-3.49;100.00
23446;BME280;11895;48.738;9.320;2022-12-13T00:26:41;98189.44;;;-3.44;100.00
23446;BME280;11895;48.738;9.320;2022-12-13T00:29:10;98191.19;;;-3.46;100.00
23446;BME280;11895;48.738;9.320;2022-12-13T00:31:39;98180.66;;;-3.46;100.00
23446;BME280;11895;48.738;9.320;2022-12-13T00:34:26;98189.44;;;-3.50;100.00
23446;BME280;11895;48.738;9.320;2022-12-13T00:36:55;98178.91;;;-3.47;100.00
23446;BME280;11895;48.738;9.320;2022-12-13T00:39:25;98181.53;;;-3.44;100.00
23446;BME280;11895;48.738;9.320;2022-12-13T00:41:54;98178.91;;;-3.50;100.00
23446;BME280;11895;48.738;9.320;2022-12-13T00:44:22;98178.91;;;-3.50;100.00
23446;BME280;11895;48.738;9.320;2022-12-13T00:46:50;98177.16;;;-3.51;100.00
23446;BME280;11895;48.738;9.320;2022-12-13T00:49:21;98181.56;;;-3.57;100.00
23446;BME280;11895;48.738;9.320;2022-12-13T00:51:49;98177.16;;;-3.60;100.00
23446;BME280;11895;48.738;9.320;2022-12-13T00:54:17;98169.28;;;-3.62;100.00
23446;BME280;11895;48.738;9.320;2022-12-13T00:56:44;98168.38;;;-3.59;100.00
23446;BME280;11895;48.738;9.320;2022-12-13T00:59:13;98147.31;;;-3.59;100.00
23446;BME280;11895;48.738;9.320;2022-12-13T01:01:42;98149.97;;;-3.62;100.00
23446;BME280;11895;48.738;9.320;2022-12-13T01:04:11;98153.50;;;-3.62;100.00
23446;BME280;11895;48.738;9.320;2022-12-13T01:06:42;98145.56;;;-3.63;100.00
23446;BME280;11895;48.738;9.320;2022-12-13T01:09:30;98142.97;;;-3.62;100.00
23446;BME280;11895;48.738;9.320;2022-12-13T01:12:03;98149.09;;;-3.64;100.00
23446;BME280;11895;48.738;9.320;2022-12-13T01:14:37;98142.94;;;-3.63;100.00
23446;BME280;11895;48.738;9.320;2022-12-13T01:17:06;98149.97;;;-3.67;100.00
23446;BME280;11895;48.738;9.320;2022-12-13T01:19:34;98142.06;;;-3.68;100.00
23446;BME280;11895;48.738;9.320;2022-12-13T01:22:04;98148.22;;;-3.71;100.00
23446;BME280;11895;48.738;9.320;2022-12-13T01:24:33;98152.59;;;-3.74;100.00
23446;BME280;11895;48.738;9.320;2022-12-13T01:27:01;98146.47;;;-3.72;100.00
23446;BME280;11895;48.738;9.320;2022-12-13T01:29:29;98150.88;;;-3.72;100.00
23446;BME280;11895;48.738;9.320;2022-12-13T01:31:56;98157.88;;;-3.74;100.00
23446;BME280;11895;48.738;9.320;2022-12-13T01:34:25;98152.59;;;-3.77;100.00
23446;BME280;11895;48.738;9.320;2022-12-13T01:36:54;98147.34;;;-3.79;100.00
23446;BME280;11895;48.738;9.320;2022-12-13T01:39:24;98147.34;;;-3.77;100.00
23446;BME280;11895;48.738;9.320;2022-12-13T01:41:55;98156.13;;;-3.78;100.00
23446;BME280;11895;48.738;9.320;2022-12-13T01:47:40;98150.00;;;-3.76;100.00
23446;BME280;11895;48.738;9.320;2022-12-13T01:50:36;98142.97;;;-3.81;100.00
23446;BME280;11895;48.738;9.320;2022-12-13T01:53:07;98148.22;;;-3.83;100.00
23446;BME280;11895;48.738;9.320;2022-12-13T01:55:38;98143.84;;;-3.85;100.00
23446;BME280;11895;48.738;9.320;2022-12-13T01:58:10;98139.44;;;-3.88;100.00
23446;BME280;11895;48.738;9.320;2022-12-13T02:00:39;98137.69;;;-3.83;100.00
23446;BME280;11895;48.738;9.320;2022-12-13T02:03:07;98135.09;;;-3.91;100.00
23446;BME280;11895;48.738;9.320;2022-12-13T02:08:31;98134.19;;;-3.97;100.00
23446;BME280;11895;48.738;9.320;2022-12-13T02:11:03;98134.19;;;-3.97;100.00
23446;BME280;11895;48.738;9.320;2022-12-13T02:13:34;98123.69;;;-3.99;100.00
23446;BME280;11895;48.738;9.320;2022-12-13T02:25:37;98110.53;;;-4.08;100.00
23446;BME280;11895;48.738;9.320;2022-12-13T02:32:03;98116.66;;;-4.12;100.00
23446;BME280;11895;48.738;9.320;2022-12-13T02:40:33;98114.91;;;-4.19;100.00
23446;BME280;11895;48.738;9.320;2022-12-13T02:43:19;98107.03;;;-4.19;100.00
23446;BME280;11895;48.738;9.320;2022-12-13T02:45:53;98116.66;;;-4.20;100.00
23446;BME280;11895;48.738;9.320;2022-12-13T02:48:34;98107.88;;;-4.11;100.00
23446;BME280;11895;48.738;9.320;2022-12-13T02:51:05;98109.66;;;-4.13;100.00
23446;BME280;11895;48.738;9.320;2022-12-13T02:53:37;98111.38;;;-4.12;100.00
23446;BME280;11895;48.738;9.320;2022-12-13T02:56:06;98110.53;;;-4.08;100.00
23446;BME280;11895;48.738;9.320;2022-12-13T02:58:37;98121.94;;;-4.04;100.00
23446;BME280;11895;48.738;9.320;2022-12-13T03:10:08;98100.88;;;-4.18;100.00
23446;BME280;11895;48.738;9.320;2022-12-13T03:12:53;98096.50;;;-4.19;100.00
23446;BME280;11895;48.738;9.320;2022-12-13T03:15:47;98086.00;;;-4.15;100.00
23446;BME280;11895;48.738;9.320;2022-12-13T03:18:27;98084.22;;;-4.14;100.00
23446;BME280;11895;48.738;9.320;2022-12-13T03:21:02;98077.22;;;-4.15;100.00
23446;BME280;11895;48.738;9.320;2022-12-13T03:23:31;98075.47;;;-4.19;100.00
23446;BME280;11895;48.738;9.320;2022-12-13T03:26:13;98070.22;;;-4.15;100.00
23446;BME280;11895;48.738;9.320;2022-12-13T03:28:43;98072.81;;;-4.13;100.00
23446;BME280;11895;48.738;9.320;2022-12-13T03:31:11;98071.97;;;-4.15;100.00
23446;BME280;11895;48.738;9.320;2022-12-13T03:33:38;98078.09;;;-4.18;100.00
23446;BME280;11895;48.738;9.320;2022-12-13T03:36:07;98079.84;;;-4.12;100.00
23446;BME280;11895;48.738;9.320;2022-12-13T03:38:36;98085.97;;;-4.19;100.00
23446;BME280;11895;48.738;9.320;2022-12-13T03:41:12;98089.50;;;-4.20;100.00
23446;BME280;11895;48.738;9.320;2022-12-13T03:43:41;98077.19;;;-4.21;100.00
23446;BME280;11895;48.738;9.320;2022-12-13T03:46:09;98075.47;;;-4.18;100.00
23446;BME280;11895;48.738;9.320;2022-12-13T03:48:37;98083.34;;;-4.54;100.00
23446;BME280;11895;48.738;9.320;2022-12-13T03:51:05;98081.56;;;-4.52;100.00
23446;BME280;11895;48.738;9.320;2022-12-13T03:53:32;98074.53;;;-4.70;100.00
23446;BME280;11895;48.738;9.320;2022-12-13T03:56:03;98078.91;;;-4.72;100.00
23446;BME280;11895;48.738;9.320;2022-12-13T03:58:34;98065.78;;;-4.61;100.00
23446;BME280;11895;48.738;9.320;2022-12-13T04:01:10;98072.81;;;-4.37;100.00
23446;BME280;11895;48.738;9.320;2022-12-13T04:03:40;98059.69;;;-4.34;100.00
23446;BME280;11895;48.738;9.320;2022-12-13T04:06:11;98071.06;;;-4.28;100.00
23446;BME280;11895;48.738;9.320;2022-12-13T04:08:49;98059.69;;;-4.19;100.00
23446;BME280;11895;48.738;9.320;2022-12-13T04:11:19;98058.81;;;-4.20;100.00
23446;BME280;11895;48.738;9.320;2022-12-13T04:14:10;98057.94;;;-4.20;100.00
23446;BME280;11895;48.738;9.320;2022-12-13T04:16:38;98061.44;;;-4.18;100.00
23446;BME280;11895;48.738;9.320;2022-12-13T04:19:06;98065.81;;;-4.17;100.00
23446;BME280;11895;48.738;9.320;2022-12-13T04:21:34;98050.91;;;-4.18;100.00
23446;BME280;11895;48.738;9.320;2022-12-13T04:24:02;98056.19;;;-4.15;100.00
23446;BME280;11895;48.738;9.320;2022-12-13T04:26:30;98057.94;;;-4.20;100.00
23446;BME280;11895;48.738;9.320;2022-12-13T04:28:57;98051.81;;;-4.19;100.00
23446;BME280;11895;48.738;9.320;2022-12-13T04:31:25;98057.94;;;-4.14;100.00
23446;BME280;11895;48.738;9.320;2022-12-13T04:33:53;98056.19;;;-4.15;100.00
23446;BME280;11895;48.738;9.320;2022-12-13T04:36:20;98058.81;;;-4.15;100.00
23446;BME280;11895;48.738;9.320;2022-12-13T04:39:00;98058.81;;;-4.14;100.00
23446;BME280;11895;48.738;9.320;2022-12-13T04:41:33;98059.69;;;-4.10;100.00
23446;BME280;11895;48.738;9.320;2022-12-13T04:44:03;98058.78;;;-4.03;100.00
23446;BME280;11895;48.738;9.320;2022-12-13T04:46:32;98063.16;;;-4.02;100.00
23446;BME280;11895;48.738;9.320;2022-12-13T04:49:00;98060.56;;;-4.09;100.00
23446;BME280;11895;48.738;9.320;2022-12-13T04:51:28;98057.94;;;-4.20;100.00
23446;BME280;11895;48.738;9.320;2022-12-13T04:53:56;98057.91;;;-4.11;100.00
23446;BME280;11895;48.738;9.320;2022-12-13T04:56:44;98054.44;;;-4.10;100.00
23446;BME280;11895;48.738;9.320;2022-12-13T04:59:12;98050.94;;;-4.15;100.00
23446;BME280;11895;48.738;9.320;2022-12-13T05:01:40;98049.16;;;-4.11;100.00
23446;BME280;11895;48.738;9.320;2022-12-13T05:04:08;98046.53;;;-4.10;100.00
23446;BME280;11895;48.738;9.320;2022-12-13T05:06:37;98056.19;;;-4.09;100.00
23446;BME280;11895;48.738;9.320;2022-12-13T05:09:05;98043.88;;;-4.07;100.00
23446;BME280;11895;48.738;9.320;2022-12-13T05:11:38;98050.94;;;-4.06;100.00
23446;BME280;11895;48.738;9.320;2022-12-13T05:14:14;98050.03;;;-4.14;100.00
23446;BME280;11895;48.738;9.320;2022-12-13T05:16:49;98038.66;;;-4.19;100.00
23446;BME280;11895;48.738;9.320;2022-12-13T05:19:18;98040.41;;;-4.20;100.00
23446;BME280;11895;48.738;9.320;2022-12-13T05:21:47;98045.66;;;-4.15;100.00
23446;BME280;11895;48.738;9.320;2022-12-13T05:24:15;98043.91;;;-4.19;100.00
23446;BME280;11895;48.738;9.320;2022-12-13T05:26:44;98047.44;;;-4.20;100.00
23446;BME280;11895;48.738;9.320;2022-12-13T05:29:11;98039.53;;;-4.20;100.00
23446;BME280;11895;48.738;9.320;2022-12-13T05:31:39;98045.66;;;-4.21;100.00
23446;BME280;11895;48.738;9.320;2022-12-13T05:34:07;98050.91;;;-4.21;100.00
23446;BME280;11895;48.738;9.320;2022-12-13T05:36:35;98047.44;;;-4.20;100.00
23446;BME280;11895;48.738;9.320;2022-12-13T05:39:03;98045.66;;;-4.21;100.00
23446;BME280;11895;48.738;9.320;2022-12-13T05:41:32;98045.66;;;-4.27;100.00
23446;BME280;11895;48.738;9.320;2022-12-13T05:44:02;98043.91;;;-4.22;100.00
23446;BME280;11895;48.738;9.320;2022-12-13T05:46:30;98036.88;;;-4.26;100.00
23446;BME280;11895;48.738;9.320;2022-12-13T05:49:03;98035.16;;;-4.27;100.00
23446;BME280;11895;48.738;9.320;2022-12-13T05:51:31;98033.41;;;-4.25;100.00
23446;BME280;11895;48.738;9.320;2022-12-13T05:54:00;98036.00;;;-4.22;100.00
23446;BME280;11895;48.738;9.320;2022-12-13T05:56:27;98035.16;;;-4.27;100.00
23446;BME280;11895;48.738;9.320;2022-12-13T05:58:56;98033.38;;;-4.16;100.00
23446;BME280;11895;48.738;9.320;2022-12-13T06:01:23;98032.53;;;-4.24;100.00
23446;BME280;11895;48.738;9.320;2022-12-13T06:03:51;98036.91;;;-4.20;100.00
23446;BME280;11895;48.738;9.320;2022-12-13T06:06:19;98022.88;;;-4.19;100.00
23446;BME280;11895;48.738;9.320;2022-12-13T06:08:47;98028.13;;;-4.22;100.00
23446;BME280;11895;48.738;9.320;2022-12-13T06:11:15;98023.75;;;-4.29;100.00
23446;BME280;11895;48.738;9.320;2022-12-13T06:13:58;98026.38;;;-4.32;100.00
23446;BME280;11895;48.738;9.320;2022-12-13T06:16:27;98024.63;;;-4.14;100.00
23446;BME280;11895;48.738;9.320;2022-12-13T06:18:58;98028.13;;;-4.13;100.00
23446;BME280;11895;48.738;9.320;2022-12-13T06:21:34;98035.16;;;-4.15;100.00
23446;BME280;11895;48.738;9.320;2022-12-13T06:24:19;98033.38;;;-4.10;100.00
23446;BME280;11895;48.738;9.320;2022-12-13T06:26:49;98028.09;;;-4.07;100.00
23446;BME280;11895;48.738;9.320;2022-12-13T06:29:21;98029.88;;;-4.15;100.00
23446;BME280;11895;48.738;9.320;2022-12-13T06:31:57;98028.13;;;-4.13;100.00
23446;BME280;11895;48.738;9.320;2022-12-13T06:34:34;98026.38;;;-4.19;100.00
23446;BME280;11895;48.738;9.320;2022-12-13T06:37:05;98031.63;;;-4.23;100.00
23446;BME280;11895;48.738;9.320;2022-12-13T06:39:34;98025.50;;;-4.22;100.00
23446;BME280;11895;48.738;9.320;2022-12-13T06:42:03;98019.38;;;-4.18;100.00
23446;BME280;11895;48.738;9.320;2022-12-13T06:44:33;98017.63;;;-4.15;100.00
23446;BME280;11895;48.738;9.320;2022-12-13T06:47:03;98022.88;;;-4.19;100.00
23446;BME280;11895;48.738;9.320;2022-12-13T06:49:40;98018.47;;;-4.13;100.00
23446;BME280;11895;48.738;9.320;2022-12-13T06:52:11;98022.88;;;-4.13;100.00
23446;BME280;11895;48.738;9.320;2022-12-13T06:54:40;98024.63;;;-4.18;100.00
23446;BME280;11895;48.738;9.320;2022-12-13T06:57:10;98037.75;;;-4.12;100.00
23446;BME280;11895;48.738;9.320;2022-12-13T06:59:39;98042.13;;;-4.11;100.00
23446;BME280;11895;48.738;9.320;2022-12-13T07:02:09;98042.13;;;-4.08;100.00
23446;BME280;11895;48.738;9.320;2022-12-13T07:04:52;98043.91;;;-4.04;100.00
23446;BME280;11895;48.738;9.320;2022-12-13T07:07:23;98050.91;;;-4.00;100.00
23446;BME280;11895;48.738;9.320;2022-12-13T07:09:52;98049.16;;;-3.99;100.00
23446;BME280;11895;48.738;9.320;2022-12-13T07:12:20;98047.38;;;-4.02;100.00
23446;BME280;11895;48.738;9.320;2022-12-13T07:14:49;98036.00;;;-4.05;100.00
23446;BME280;11895;48.738;9.320;2022-12-13T07:17:16;98045.66;;;-4.09;100.00
23446;BME280;11895;48.738;9.320;2022-12-13T07:20:05;98051.78;;;-4.02;100.00
23446;BME280;11895;48.738;9.320;2022-12-13T07:22:36;98056.19;;;-4.06;100.00
23446;BME280;11895;48.738;9.320;2022-12-13T07:25:13;98048.25;;;-3.94;100.00
23446;BME280;11895;48.738;9.320;2022-12-13T07:28:06;98054.41;;;-3.85;100.00
23446;BME280;11895;48.738;9.320;2022-12-13T07:30:36;98048.25;;;-3.80;100.00
23446;BME280;11895;48.738;9.320;2022-12-13T07:33:08;98047.38;;;-3.80;100.00
23446;BME280;11895;48.738;9.320;2022-12-13T07:35:37;98050.00;;;-3.85;100.00
23446;BME280;11895;48.738;9.320;2022-12-13T07:38:05;98054.38;;;-3.67;100.00
23446;BME280;11895;48.738;9.320;2022-12-13T07:40:35;98052.59;;;-3.62;100.00
23446;BME280;11895;48.738;9.320;2022-12-13T07:43:05;98046.47;;;-3.67;100.00
23446;BME280;11895;48.738;9.320;2022-12-13T07:45:32;98061.34;;;-3.63;100.00
23446;BME280;11895;48.738;9.320;2022-12-13T07:48:04;98064.88;;;-3.61;100.00
23446;BME280;11895;48.738;9.320;2022-12-13T07:50:36;98063.94;;;-3.46;100.00
23446;BME280;11895;48.738;9.320;2022-12-13T07:53:06;98064.78;;;-3.30;100.00
23446;BME280;11895;48.738;9.320;2022-12-13T07:55:36;98078.75;;;-3.19;100.00
23446;BME280;11895;48.738;9.320;2022-12-13T07:58:08;98073.53;;;-3.22;100.00
23446;BME280;11895;48.738;9.320;2022-12-13T08:00:42;98078.81;;;-3.28;100.00
23446;BME280;11895;48.738;9.320;2022-12-13T08:04:08;98076.09;;;-3.10;100.00
23446;BME280;11895;48.738;9.320;2022-12-13T08:06:37;98081.34;;;-3.02;100.00
23446;BME280;11895;48.738;9.320;2022-12-13T08:09:05;98080.44;;;-2.97;100.00
23446;BME280;11895;48.738;9.320;2022-12-13T08:11:34;98081.28;;;-2.89;100.00
23446;BME280;11895;48.738;9.320;2022-12-13T08:14:02;98066.25;;;-2.71;100.00
23446;BME280;11895;48.738;9.320;2022-12-13T08:16:30;98085.63;;;-2.75;100.00
23446;BME280;11895;48.738;9.320;2022-12-13T08:18:58;98079.44;;;-2.74;100.00
23446;BME280;11895;48.738;9.320;2022-12-13T08:21:38;98082.13;;;-2.83;100.00
23446;BME280;11895;48.738;9.320;2022-12-13T08:24:29;98078.41;;;-2.52;100.00
23446;BME280;11895;48.738;9.320;2022-12-13T08:26:59;98072.25;;;-2.48;100.00
23446;BME280;11895;48.738;9.320;2022-12-13T08:29:31;98081.75;;;-2.22;100.00
23446;BME280;11895;48.738;9.320;2022-12-13T08:32:10;98076.72;;;-2.59;100.00
23446;BME280;11895;48.738;9.320;2022-12-13T08:34:39;98071.44;;;-2.59;100.00
23446;BME280;11895;48.738;9.320;2022-12-13T08:37:32;98071.41;;;-2.51;100.00
23446;BME280;11895;48.738;9.320;2022-12-13T08:39:59;98079.19;;;-2.33;100.00
23446;BME280;11895;48.738;9.320;2022-12-13T08:42:27;98088.06;;;-2.42;100.00
23446;BME280;11895;48.738;9.320;2022-12-13T08:44:55;98074.69;;;-2.23;100.00
23446;BME280;11895;48.738;9.320;2022-12-13T08:47:25;98074.75;;;-2.26;100.00
23446;BME280;11895;48.738;9.320;2022-12-13T08:49:54;98075.41;;;-2.00;100.00
23446;BME280;11895;48.738;9.320;2022-12-13T08:52:35;98079.84;;;-2.02;100.00
23446;BME280;11895;48.738;9.320;2022-12-13T08:55:13;98081.44;;;-1.89;100.00
23446;BME280;11895;48.738;9.320;2022-12-13T08:57:47;98083.25;;;-1.91;100.00
23446;BME280;11895;48.738;9.320;2022-12-13T09:00:17;98085.13;;;-2.05;100.00
23446;BME280;11895;48.738;9.320;2022-12-13T09:02:46;98090.34;;;-1.99;100.00
23446;BME280;11895;48.738;9.320;2022-12-13T09:05:20;98090.00;;;-1.59;100.00
23446;BME280;11895;48.738;9.320;2022-12-13T09:08:02;98085.66;;;-1.66;100.00
23446;BME280;11895;48.738;9.320;2022-12-13T09:10:57;98068.97;;;-1.68;100.00
